createdAt,value
2018-08-07T00:00:43.404Z,25.6
2018-08-07T00:01:33.447Z,25.6
2018-08-07T00:02:23.676Z,25.6
2018-08-07T00:03:13.617Z,25.6
2018-08-07T00:04:03.692Z,25.6
2018-08-07T00:04:53.700Z,25.6
2018-08-07T00:05:44.278Z,25.6
2018-08-07T00:06:34.589Z,25.6
2018-08-07T00:07:24.389Z,25.6
2018-08-07T00:08:14.515Z,25.6
2018-08-07T00:09:04.319Z,25.6
2018-08-07T00:09:54.286Z,25.6
2018-08-07T00:10:44.131Z,25.6
2018-08-07T00:11:34.429Z,25.6
2018-08-07T00:12:24.470Z,25.6
2018-08-07T00:13:15.114Z,25.6
2018-08-07T00:14:05.200Z,25.6
2018-08-07T00:14:54.972Z,25.6
2018-08-07T00:15:45.224Z,25.6
2018-08-07T00:16:35.056Z,25.6
2018-08-07T00:17:25.118Z,25.6
2018-08-07T00:18:14.916Z,25.6
2018-08-07T00:19:05.521Z,25.6
2018-08-07T00:19:55.650Z,25.6
2018-08-07T00:20:45.703Z,25.5
2018-08-07T00:21:34.941Z,25.5
2018-08-07T00:22:25.314Z,25.5
2018-08-07T00:23:15.088Z,25.5
2018-08-07T00:24:05.377Z,25.5
2018-08-07T00:24:55.482Z,25.5
2018-08-07T00:25:45.485Z,25.5
2018-08-07T00:26:36.128Z,25.5
2018-08-07T00:27:25.932Z,25.5
2018-08-07T00:28:16.585Z,25.5
2018-08-07T00:29:06.053Z,25.5
2018-08-07T00:29:55.833Z,25.5
2018-08-07T00:30:46.146Z,25.5
2018-08-07T00:31:36.854Z,25.5
2018-08-07T00:32:26.283Z,25.5
2018-08-07T00:33:16.355Z,25.4
2018-08-07T00:34:06.999Z,25.4
2018-08-07T00:34:56.254Z,25.4
2018-08-07T00:35:47.170Z,25.4
2018-08-07T00:36:36.661Z,25.5
2018-08-07T00:37:26.436Z,25.4
2018-08-07T00:38:17.053Z,25.4
2018-08-07T00:39:07.379Z,25.4
2018-08-07T00:39:57.432Z,25.4
2018-08-07T00:40:47.295Z,25.4
2018-08-07T00:41:37.377Z,25.4
2018-08-07T00:42:26.191Z,25.4
2018-08-07T00:43:17.422Z,25.4
2018-08-07T00:44:07.240Z,25.4
2018-08-07T00:44:57.287Z,25.4
2018-08-07T00:45:47.090Z,25.4
2018-08-07T00:46:37.461Z,25.4
2018-08-07T00:47:26.889Z,25.4
2018-08-07T00:48:17.280Z,25.4
2018-08-07T00:49:07.005Z,25.4
2018-08-07T00:49:57.659Z,25.4
2018-08-07T00:50:47.453Z,25.4
2018-08-07T00:51:37.811Z,25.4
2018-08-07T00:52:27.532Z,25.4
2018-08-07T00:53:17.354Z,25.4
2018-08-07T00:54:07.974Z,25.4
2018-08-07T00:54:57.812Z,25.4
2018-08-07T00:55:47.816Z,25.4
2018-08-07T00:56:37.611Z,25.4
2018-08-07T00:57:27.971Z,25.4
2018-08-07T00:58:18.603Z,25.4
2018-08-07T00:59:08.067Z,25.4
2018-08-07T00:59:57.333Z,25.4
2018-08-07T01:00:48.198Z,25.4
2018-08-07T01:01:38.347Z,25.4
2018-08-07T01:02:28.041Z,25.3
2018-08-07T01:03:18.985Z,25.4
2018-08-07T01:04:08.781Z,25.3
2018-08-07T01:04:58.788Z,25.3
2018-08-07T01:05:48.000Z,25.3
2018-08-07T01:06:38.965Z,25.3
2018-08-07T01:07:29.403Z,25.3
2018-08-07T01:08:19.070Z,25.3
2018-08-07T01:09:09.117Z,25.3
2018-08-07T01:09:59.211Z,25.3
2018-08-07T01:10:49.546Z,25.3
2018-08-07T01:11:39.900Z,25.3
2018-08-07T01:12:29.577Z,25.3
2018-08-07T01:13:19.451Z,25.3
2018-08-07T01:14:10.089Z,25.3
2018-08-07T01:15:00.145Z,25.3
2018-08-07T01:15:49.950Z,25.3
2018-08-07T01:16:40.272Z,25.3
2018-08-07T01:17:30.365Z,25.3
2018-08-07T01:18:19.527Z,25.3
2018-08-07T01:19:09.627Z,25.3
2018-08-07T01:19:58.919Z,25.3
2018-08-07T01:20:50.342Z,25.3
2018-08-07T01:21:40.372Z,25.3
2018-08-07T01:22:30.444Z,25.2
2018-08-07T01:23:20.540Z,25.2
2018-08-07T01:24:10.313Z,25.2
2018-08-07T01:25:00.315Z,25.3
2018-08-07T01:25:49.860Z,25.2
2018-08-07T01:26:40.767Z,25.2
2018-08-07T01:27:30.862Z,25.2
2018-08-07T01:28:20.612Z,25.2
2018-08-07T01:29:10.653Z,25.2
2018-08-07T01:30:01.123Z,25.2
2018-08-07T01:30:50.896Z,25.2
2018-08-07T01:31:41.383Z,25.2
2018-08-07T01:32:30.954Z,25.2
2018-08-07T01:33:21.580Z,25.2
2018-08-07T01:34:10.762Z,25.2
2018-08-07T01:35:01.443Z,25.2
2018-08-07T01:35:51.479Z,25.2
2018-08-07T01:36:41.805Z,25.2
2018-08-07T01:37:31.861Z,25.1
2018-08-07T01:38:21.359Z,25.1
2018-08-07T01:39:11.700Z,25.1
2018-08-07T01:40:01.797Z,25.1
2018-08-07T01:40:51.865Z,25.1
2018-08-07T01:41:41.962Z,25.1
2018-08-07T01:42:31.748Z,25.1
2018-08-07T01:43:22.105Z,25.1
2018-08-07T01:44:11.570Z,25.1
2018-08-07T01:45:01.887Z,25.1
2018-08-07T01:45:52.245Z,25.1
2018-08-07T01:46:42.285Z,25.1
2018-08-07T01:47:32.075Z,25.1
2018-08-07T01:48:22.156Z,25.1
2018-08-07T01:49:12.497Z,25.1
2018-08-07T01:50:01.997Z,25.1
2018-08-07T01:50:52.297Z,25.1
2018-08-07T01:51:42.640Z,25.1
2018-08-07T01:52:32.143Z,25.1
2018-08-07T01:53:22.749Z,25.1
2018-08-07T01:54:13.157Z,25.1
2018-08-07T01:55:02.643Z,25.1
2018-08-07T01:55:52.466Z,25.1
2018-08-07T01:56:42.740Z,25.1
2018-08-07T01:57:33.404Z,25.1
2018-08-07T01:58:22.974Z,25.1
2018-08-07T01:59:12.742Z,25.1
2018-08-07T02:00:02.547Z,25.1
2018-08-07T02:00:52.941Z,25.1
2018-08-07T05:07:05.102Z,24.4
2018-08-07T05:07:54.785Z,24.4
2018-08-07T05:08:44.824Z,24.4
2018-08-07T05:09:34.857Z,24.4
2018-08-07T05:10:25.549Z,24.4
2018-08-07T05:11:15.582Z,24.4
2018-08-07T05:12:05.667Z,24.4
2018-08-07T05:12:55.414Z,24.4
2018-08-07T05:13:45.406Z,24.4
2018-08-07T05:14:35.489Z,24.4
2018-08-07T05:15:24.714Z,24.4
2018-08-07T05:16:15.961Z,24.5
2018-08-07T05:17:06.048Z,24.4
2018-08-07T05:17:55.478Z,24.4
2018-08-07T05:18:45.332Z,24.4
2018-08-07T05:19:35.967Z,24.4
2018-08-07T05:20:26.028Z,24.4
2018-08-07T05:21:16.032Z,24.5
2018-08-07T05:22:05.576Z,24.4
2018-08-07T05:22:55.879Z,24.4
2018-08-07T05:23:45.725Z,24.4
2018-08-07T05:24:36.281Z,24.4
2018-08-07T05:25:26.610Z,24.4
2018-08-07T05:26:16.137Z,24.5
2018-08-07T05:27:06.343Z,24.4
2018-08-07T05:27:55.728Z,24.5
2018-08-07T05:28:47.554Z,24.4
2018-08-07T05:29:37.011Z,24.5
2018-08-07T05:30:26.462Z,24.5
2018-08-07T05:31:16.304Z,24.4
2018-08-07T05:32:06.053Z,24.5
2018-08-07T05:32:57.199Z,24.5
2018-08-07T05:33:46.232Z,24.4
2018-08-07T05:34:37.382Z,24.4
2018-08-07T05:35:27.119Z,24.5
2018-08-07T05:36:16.644Z,24.5
2018-08-07T05:37:07.282Z,24.5
2018-08-07T05:37:57.609Z,24.5
2018-08-07T05:38:47.107Z,24.4
2018-08-07T05:39:37.379Z,24.5
2018-08-07T05:40:42.018Z,24.4
2018-08-07T05:41:16.813Z,24.4
2018-08-07T05:42:07.368Z,24.5
2018-08-07T05:42:58.264Z,24.5
2018-08-07T05:43:47.844Z,24.4
2018-08-07T05:44:37.329Z,24.5
2018-08-07T05:45:27.303Z,24.5
2018-08-07T05:46:17.663Z,24.5
2018-08-07T05:47:08.302Z,24.5
2018-08-07T05:47:58.075Z,24.4
2018-08-07T05:48:47.915Z,24.5
2018-08-07T05:49:38.466Z,24.5
2018-08-07T05:50:31.758Z,24.5
2018-08-07T05:51:23.651Z,24.5
2018-08-07T05:52:08.403Z,24.5
2018-08-07T05:52:58.435Z,24.5
2018-08-07T05:53:49.063Z,24.5
2018-08-07T05:54:38.853Z,24.5
2018-08-07T05:55:28.928Z,24.5
2018-08-07T05:56:18.488Z,24.5
2018-08-07T05:57:08.263Z,24.5
2018-08-07T05:57:59.539Z,24.5
2018-08-07T05:59:02.829Z,24.5
2018-08-07T05:59:39.278Z,24.5
2018-08-07T06:00:28.541Z,24.5
2018-08-07T06:01:18.286Z,24.5
2018-08-07T06:02:09.545Z,24.5
2018-08-07T06:02:59.205Z,24.5
2018-08-07T06:03:48.557Z,24.5
2018-08-07T06:04:39.261Z,24.5
2018-08-07T06:05:29.688Z,24.5
2018-08-07T06:06:18.943Z,24.5
2018-08-07T06:07:09.282Z,24.5
2018-08-07T06:07:59.909Z,24.5
2018-08-07T06:09:04.624Z,24.5
2018-08-07T06:09:38.386Z,24.5
2018-08-07T06:10:28.971Z,24.5
2018-08-07T06:11:19.877Z,24.5
2018-08-07T06:12:09.946Z,24.5
2018-08-07T06:13:00.268Z,24.5
2018-08-07T06:13:49.325Z,24.5
2018-08-07T06:14:39.979Z,24.5
2018-08-07T06:15:29.981Z,24.5
2018-08-07T06:16:19.240Z,24.5
2018-08-07T06:17:10.174Z,24.5
2018-08-07T06:18:00.149Z,24.5
2018-08-07T06:18:49.432Z,24.5
2018-08-07T06:19:40.811Z,24.5
2018-08-07T06:20:30.620Z,24.5
2018-08-07T06:21:20.650Z,24.5
2018-08-07T06:22:11.404Z,24.5
2018-08-07T06:23:01.029Z,24.5
2018-08-07T06:23:50.856Z,24.5
2018-08-07T06:24:40.850Z,24.5
2018-08-07T06:25:31.236Z,24.5
2018-08-07T06:26:21.005Z,24.5
2018-08-07T06:27:11.135Z,24.5
2018-08-07T06:28:00.684Z,24.5
2018-08-07T06:28:50.460Z,24.5
2018-08-07T06:29:40.858Z,24.5
2018-08-07T06:30:29.933Z,24.5
2018-08-07T06:31:21.268Z,24.5
2018-08-07T06:32:11.285Z,24.5
2018-08-07T06:33:00.406Z,24.5
2018-08-07T06:33:51.165Z,24.5
2018-08-07T06:34:41.342Z,24.5
2018-08-07T06:35:30.955Z,24.5
2018-08-07T06:36:20.005Z,24.5
2018-08-07T06:37:11.319Z,24.5
2018-08-07T06:38:01.649Z,24.5
2018-08-07T06:38:51.764Z,24.5
2018-08-07T06:39:42.436Z,24.5
2018-08-07T06:40:31.637Z,24.5
2018-08-07T06:41:22.244Z,24.5
2018-08-07T06:42:12.027Z,24.5
2018-08-07T06:43:03.896Z,24.5
2018-08-07T06:43:52.759Z,24.6
2018-08-07T06:44:42.779Z,24.6
2018-08-07T06:45:32.531Z,24.5
2018-08-07T06:46:22.590Z,24.6
2018-08-07T06:47:11.836Z,24.6
2018-08-07T06:48:03.540Z,24.5
2018-08-07T06:48:53.049Z,24.6
2018-08-07T06:49:42.847Z,24.6
2018-08-07T06:50:32.930Z,24.6
2018-08-07T06:51:22.665Z,24.6
2018-08-07T06:52:13.299Z,24.6
2018-08-07T06:53:02.909Z,24.6
2018-08-07T06:54:07.368Z,24.6
2018-08-07T06:54:42.679Z,24.6
2018-08-07T06:55:33.314Z,24.6
2018-08-07T06:56:23.110Z,24.6
2018-08-07T06:57:14.164Z,24.6
2018-08-07T06:58:03.790Z,24.6
2018-08-07T06:58:53.316Z,24.6
2018-08-07T06:59:43.912Z,24.6
2018-08-07T07:00:33.968Z,24.6
2018-08-07T07:01:24.017Z,24.6
2018-08-07T07:02:13.856Z,24.6
2018-08-07T07:03:04.283Z,24.6
2018-08-07T07:03:53.752Z,24.6
2018-08-07T07:04:43.805Z,24.6
2018-08-07T07:05:33.900Z,24.6
2018-08-07T07:06:24.848Z,24.6
2018-08-07T07:07:14.226Z,24.6
2018-08-07T07:08:03.206Z,24.6
2018-08-07T07:08:54.122Z,24.6
2018-08-07T07:09:44.170Z,24.6
2018-08-07T07:10:34.015Z,24.6
2018-08-07T07:11:24.588Z,24.6
2018-08-07T07:12:14.636Z,24.6
2018-08-07T07:13:04.429Z,24.6
2018-08-07T07:13:54.505Z,24.6
2018-08-07T07:14:44.015Z,24.6
2018-08-07T07:15:34.044Z,24.6
2018-08-07T07:16:24.943Z,24.6
2018-08-07T07:17:14.461Z,24.6
2018-08-07T07:18:04.797Z,24.6
2018-08-07T07:18:53.850Z,24.6
2018-08-07T07:19:43.994Z,24.6
2018-08-07T07:20:34.312Z,24.6
2018-08-07T07:21:25.079Z,24.6
2018-08-07T07:22:14.874Z,24.6
2018-08-07T07:23:04.698Z,24.6
2018-08-07T07:23:55.263Z,24.6
2018-08-07T07:24:45.405Z,24.6
2018-08-07T07:25:35.251Z,24.6
2018-08-07T07:26:25.517Z,24.6
2018-08-07T07:27:15.482Z,24.6
2018-08-07T07:28:05.290Z,24.6
2018-08-07T07:28:55.913Z,24.6
2018-08-07T07:29:45.787Z,24.6
2018-08-07T07:30:36.280Z,24.6
2018-08-07T07:31:25.588Z,24.6
2018-08-07T07:32:16.427Z,24.6
2018-08-07T07:33:06.464Z,24.6
2018-08-07T07:33:56.298Z,24.6
2018-08-07T07:34:47.671Z,24.7
2018-08-07T07:35:36.737Z,24.7
2018-08-07T07:36:26.275Z,24.7
2018-08-07T07:37:16.854Z,24.7
2018-08-07T07:38:06.904Z,24.7
2018-08-07T07:38:56.964Z,24.7
2018-08-07T07:39:46.230Z,24.7
2018-08-07T07:40:36.675Z,24.7
2018-08-07T07:41:26.690Z,24.7
2018-08-07T07:42:16.740Z,24.7
2018-08-07T07:43:06.743Z,24.7
2018-08-07T07:43:55.779Z,24.8
2018-08-07T07:44:47.207Z,24.8
2018-08-07T07:45:37.284Z,24.8
2018-08-07T07:46:27.285Z,24.8
2018-08-07T07:47:17.035Z,24.8
2018-08-07T07:48:06.642Z,24.8
2018-08-07T07:48:57.475Z,24.8
2018-08-07T07:49:47.850Z,24.8
2018-08-07T07:50:37.934Z,24.8
2018-08-07T07:51:27.389Z,24.8
2018-08-07T07:52:17.954Z,24.8
2018-08-07T07:53:22.474Z,24.8
2018-08-07T07:53:58.677Z,24.8
2018-08-07T07:54:47.926Z,24.8
2018-08-07T07:55:37.717Z,24.8
2018-08-07T07:56:28.331Z,24.8
2018-08-07T07:57:18.356Z,24.8
2018-08-07T07:58:08.334Z,24.9
2018-08-07T07:58:58.234Z,24.9
2018-08-07T07:59:47.995Z,24.9
2018-08-07T08:00:37.852Z,24.9
2018-08-07T08:01:28.705Z,24.9
2018-08-07T08:02:18.761Z,24.9
2018-08-07T08:03:08.855Z,24.9
2018-08-07T08:03:58.064Z,24.9
2018-08-07T08:04:48.710Z,24.9
2018-08-07T08:05:39.812Z,24.9
2018-08-07T08:06:28.792Z,24.9
2018-08-07T08:07:18.693Z,24.9
2018-08-07T08:08:08.680Z,24.9
2018-08-07T08:08:59.013Z,24.9
2018-08-07T08:09:49.312Z,24.9
2018-08-07T08:10:38.867Z,24.9
2018-08-07T08:11:28.956Z,24.9
2018-08-07T08:12:19.290Z,24.9
2018-08-07T08:13:09.654Z,24.9
2018-08-07T08:13:59.694Z,24.9
2018-08-07T08:14:49.485Z,24.9
2018-08-07T08:15:39.902Z,24.9
2018-08-07T08:16:29.899Z,24.9
2018-08-07T08:17:19.688Z,24.9
2018-08-07T08:18:08.898Z,24.9
2018-08-07T08:18:59.814Z,24.9
2018-08-07T08:19:49.424Z,25
2018-08-07T08:20:39.710Z,24.9
2018-08-07T08:21:29.422Z,25
2018-08-07T08:22:20.387Z,25
2018-08-07T08:23:10.135Z,25
2018-08-07T08:24:00.201Z,25
2018-08-07T08:24:50.243Z,25
2018-08-07T08:25:40.615Z,25
2018-08-07T08:26:30.393Z,25
2018-08-07T08:27:20.257Z,25
2018-08-07T08:28:09.792Z,25.1
2018-08-07T08:29:01.084Z,25.1
2018-08-07T08:29:52.163Z,25.1
2018-08-07T08:30:39.599Z,25.1
2018-08-07T08:31:31.039Z,25.1
2018-08-07T08:32:20.931Z,25.1
2018-08-07T08:33:10.627Z,25.1
2018-08-07T08:34:01.230Z,25.1
2018-08-07T08:34:51.427Z,25.1
2018-08-07T08:35:42.120Z,25.1
2018-08-07T08:36:31.431Z,25.1
2018-08-07T08:37:21.164Z,25.1
2018-08-07T08:38:11.545Z,25.1
2018-08-07T08:39:01.660Z,25.1
2018-08-07T08:39:51.406Z,25.1
2018-08-07T08:40:40.742Z,25.1
2018-08-07T08:41:30.773Z,25.1
2018-08-07T08:42:21.927Z,25.1
2018-08-07T08:43:11.419Z,25.1
2018-08-07T08:44:01.462Z,25.1
2018-08-07T08:44:51.608Z,25.1
2018-08-07T08:45:41.896Z,25.1
2018-08-07T08:46:32.234Z,25.1
2018-08-07T08:47:22.272Z,25.1
2018-08-07T08:48:12.277Z,25.1
2018-08-07T08:49:01.877Z,25.1
2018-08-07T08:49:50.937Z,25.1
2018-08-07T08:50:41.729Z,25.1
2018-08-07T08:51:32.085Z,25.1
2018-08-07T08:52:22.415Z,25.2
2018-08-07T08:53:12.486Z,25.2
2018-08-07T08:54:02.898Z,25.2
2018-08-07T08:54:52.359Z,25.1
2018-08-07T08:55:42.197Z,25.2
2018-08-07T08:56:33.049Z,25.2
2018-08-07T08:57:23.107Z,25.2
2018-08-07T08:58:12.599Z,25.2
2018-08-07T08:59:02.464Z,25.2
2018-08-07T08:59:53.004Z,25.2
2018-08-07T09:00:42.256Z,25.2
2018-08-07T09:01:32.127Z,25.2
2018-08-07T09:02:23.483Z,25.2
2018-08-07T09:03:12.739Z,25.2
2018-08-07T09:04:03.359Z,25.2
2018-08-07T09:21:27.851Z,25.3
2018-08-07T09:22:18.209Z,25.3
2018-08-07T09:23:08.874Z,25.3
2018-08-07T09:23:58.325Z,25.3
2018-08-07T09:24:48.905Z,25.3
2018-08-07T09:25:42.029Z,25.3
2018-08-07T09:26:28.807Z,25.3
2018-08-07T09:27:18.552Z,25.3
2018-08-07T09:28:09.158Z,25.3
2018-08-07T09:28:59.030Z,25.3
2018-08-07T09:29:49.015Z,25.3
2018-08-07T09:30:38.880Z,25.3
2018-08-07T09:31:29.067Z,25.3
2018-08-07T09:32:19.259Z,25.3
2018-08-07T09:33:09.926Z,25.3
2018-08-07T09:33:59.365Z,25.3
2018-08-07T09:34:49.733Z,25.3
2018-08-07T09:35:39.218Z,25.3
2018-08-07T09:36:29.863Z,25.3
2018-08-07T09:37:19.661Z,25.3
2018-08-07T09:38:09.993Z,25.3
2018-08-07T09:39:00.051Z,25.3
2018-08-07T09:39:50.310Z,25.3
2018-08-07T09:40:39.980Z,25.3
2018-08-07T09:41:29.721Z,25.3
2018-08-07T09:42:20.336Z,25.3
2018-08-07T09:43:10.127Z,25.3
2018-08-07T09:44:00.238Z,25.3
2018-08-07T09:44:50.341Z,25.3
2018-08-07T09:45:40.327Z,25.3
2018-08-07T09:46:31.096Z,25.3
2018-08-07T09:47:19.951Z,25.3
2018-08-07T09:48:10.782Z,25.3
2018-08-07T09:49:00.824Z,25.3
2018-08-07T09:49:52.123Z,25.3
2018-08-07T09:50:40.425Z,25.3
2018-08-07T09:51:30.785Z,25.3
2018-08-07T09:52:21.726Z,25.3
2018-08-07T09:53:10.301Z,25.3
2018-08-07T09:54:01.193Z,25.3
2018-08-07T09:54:51.003Z,25.3
2018-08-07T09:55:40.783Z,25.3
2018-08-07T09:56:31.115Z,25.3
2018-08-07T09:57:21.161Z,25.3
2018-08-07T09:58:10.997Z,25.3
2018-08-07T09:59:01.047Z,25.3
2018-08-07T09:59:51.378Z,25.3
2018-08-07T10:00:41.218Z,25.3
2018-08-07T10:01:30.966Z,25.3
2018-08-07T10:02:21.866Z,25.3
2018-08-07T10:03:11.681Z,25.3
2018-08-07T10:04:01.420Z,25.3
2018-08-07T10:04:51.242Z,25.3
2018-08-07T10:05:42.623Z,25.3
2018-08-07T10:06:31.948Z,25.3
2018-08-07T10:07:22.043Z,25.3
2018-08-07T10:08:11.782Z,25.3
2018-08-07T10:09:01.281Z,25.4
2018-08-07T10:09:52.160Z,25.4
2018-08-07T10:10:41.987Z,25.3
2018-08-07T10:11:32.022Z,25.4
2018-08-07T10:12:22.789Z,25.4
2018-08-07T10:13:12.775Z,25.4
2018-08-07T10:14:02.227Z,25.4
2018-08-07T10:14:52.315Z,25.4
2018-08-07T10:15:42.614Z,25.4
2018-08-07T10:16:33.031Z,25.4
2018-08-07T10:17:22.832Z,25.4
2018-08-07T10:18:12.593Z,25.4
2018-08-07T10:19:03.181Z,25.4
2018-08-07T10:19:52.717Z,25.4
2018-08-07T10:20:42.763Z,25.4
2018-08-07T10:21:33.087Z,25.4
2018-08-07T10:22:22.908Z,25.4
2018-08-07T10:23:14.028Z,25.4
2018-08-07T10:24:03.262Z,25.4
2018-08-07T10:24:53.342Z,25.4
2018-08-07T10:25:43.690Z,25.4
2018-08-07T10:26:33.148Z,25.4
2018-08-07T10:27:24.079Z,25.4
2018-08-07T10:28:13.359Z,25.4
2018-08-07T10:29:03.635Z,25.4
2018-08-07T10:29:53.796Z,25.4
2018-08-07T10:30:44.060Z,25.4
2018-08-07T10:31:34.088Z,25.4
2018-08-07T10:32:23.454Z,25.4
2018-08-07T10:33:13.555Z,25.4
2018-08-07T10:34:04.354Z,25.4
2018-08-07T10:34:54.519Z,25.4
2018-08-07T10:35:44.181Z,25.4
2018-08-07T10:36:34.003Z,25.4
2018-08-07T10:37:24.335Z,25.4
2018-08-07T10:38:14.401Z,25.4
2018-08-07T10:39:04.190Z,25.4
2018-08-07T10:39:54.608Z,25.4
2018-08-07T10:40:46.214Z,25.4
2018-08-07T10:41:33.840Z,25.5
2018-08-07T10:42:24.466Z,25.5
2018-08-07T10:43:17.372Z,25.5
2018-08-07T10:44:05.308Z,25.5
2018-08-07T10:44:54.387Z,25.5
2018-08-07T10:45:44.975Z,25.5
2018-08-07T10:46:35.892Z,25.5
2018-08-07T10:47:24.535Z,25.5
2018-08-07T10:48:15.487Z,25.5
2018-08-07T10:49:04.995Z,25.5
2018-08-07T10:49:55.072Z,25.5
2018-08-07T10:50:45.160Z,25.5
2018-08-07T10:51:35.157Z,25.5
2018-08-07T10:52:26.392Z,25.5
2018-08-07T10:53:15.025Z,25.5
2018-08-07T10:54:05.919Z,25.5
2018-08-07T10:54:55.399Z,25.5
2018-08-07T10:55:45.224Z,25.5
2018-08-07T10:56:37.524Z,25.5
2018-08-07T10:57:26.006Z,25.5
2018-08-07T10:58:16.676Z,25.5
2018-08-07T10:59:06.524Z,25.6
2018-08-07T10:59:55.547Z,25.6
2018-08-07T11:00:45.576Z,25.6
2018-08-07T11:01:35.979Z,25.6
2018-08-07T11:02:26.571Z,25.6
2018-08-07T11:03:16.090Z,25.6
2018-08-07T11:04:06.511Z,25.6
2018-08-07T11:04:56.743Z,25.6
2018-08-07T11:05:47.822Z,25.6
2018-08-07T11:06:36.949Z,25.6
2018-08-07T11:07:26.377Z,25.6
2018-08-07T11:08:16.978Z,25.6
2018-08-07T11:09:06.524Z,25.6
2018-08-07T11:09:57.191Z,25.6
2018-08-07T11:10:46.672Z,25.6
2018-08-07T11:11:37.269Z,25.6
2018-08-07T11:12:27.343Z,25.6
2018-08-07T11:13:17.182Z,25.6
2018-08-07T11:14:06.923Z,25.6
2018-08-07T11:14:57.567Z,25.6
2018-08-07T11:15:47.345Z,25.6
2018-08-07T11:16:37.385Z,25.6
2018-08-07T11:17:27.488Z,25.6
2018-08-07T11:18:16.710Z,25.6
2018-08-07T11:19:07.331Z,25.6
2018-08-07T11:19:57.695Z,25.6
2018-08-07T11:20:47.487Z,25.6
2018-08-07T11:21:37.573Z,25.6
2018-08-07T11:22:27.293Z,25.6
2018-08-07T11:23:17.675Z,25.6
2018-08-07T11:24:07.993Z,25.6
2018-08-07T11:24:58.211Z,25.6
2018-08-07T11:25:47.874Z,25.6
2018-08-07T11:26:38.498Z,25.6
2018-08-07T11:27:28.298Z,25.6
2018-08-07T11:28:17.794Z,25.6
2018-08-07T11:29:08.404Z,25.6
2018-08-07T11:29:59.341Z,25.6
2018-08-07T11:30:48.269Z,25.6
2018-08-07T11:31:38.630Z,25.6
2018-08-07T11:32:28.668Z,25.6
2018-08-07T11:33:18.176Z,25.7
2018-08-07T11:34:09.105Z,25.6
2018-08-07T11:34:58.889Z,25.7
2018-08-07T11:35:48.989Z,25.7
2018-08-07T11:36:38.973Z,25.7
2018-08-07T11:37:28.272Z,25.7
2018-08-07T11:38:18.940Z,25.7
2018-08-07T11:39:09.264Z,25.7
2018-08-07T11:39:59.330Z,25.7
2018-08-07T11:40:49.333Z,25.7
2018-08-07T11:41:39.123Z,25.7
2018-08-07T11:42:29.156Z,25.7
2018-08-07T11:43:19.399Z,25.8
2018-08-07T11:44:09.651Z,25.8
2018-08-07T11:44:59.691Z,25.7
2018-08-07T11:45:49.740Z,25.7
2018-08-07T11:46:39.195Z,25.7
2018-08-07T11:47:29.542Z,25.8
2018-08-07T11:48:20.450Z,25.7
2018-08-07T11:49:10.181Z,25.8
2018-08-07T11:50:00.254Z,25.8
2018-08-07T11:50:50.189Z,25.8
2018-08-07T11:51:40.535Z,25.8
2018-08-07T11:52:30.833Z,25.8
2018-08-07T11:53:20.694Z,25.8
2018-08-07T11:54:10.548Z,25.8
2018-08-07T11:55:00.407Z,25.8
2018-08-07T11:55:50.745Z,25.8
2018-08-07T11:56:40.546Z,25.8
2018-08-07T11:57:30.092Z,25.8
2018-08-07T11:58:20.825Z,25.8
2018-08-07T11:59:10.922Z,25.8
2018-08-07T12:00:00.629Z,25.8
2018-08-07T12:00:50.884Z,25.8
2018-08-07T12:01:41.196Z,25.8
2018-08-07T12:02:30.978Z,25.8
2018-08-07T12:03:21.073Z,25.8
2018-08-07T12:04:11.220Z,25.8
2018-08-07T12:05:01.473Z,25.8
2018-08-07T12:05:51.557Z,25.8
2018-08-07T12:06:41.586Z,25.8
2018-08-07T12:07:31.704Z,25.8
2018-08-07T12:08:20.746Z,25.8
2018-08-07T12:09:10.965Z,25.8
2018-08-07T12:10:01.631Z,25.8
2018-08-07T12:10:51.655Z,25.8
2018-08-07T12:11:42.018Z,25.8
2018-08-07T12:12:32.043Z,25.8
2018-08-07T12:13:20.743Z,25.8
2018-08-07T12:14:11.987Z,25.9
2018-08-07T12:15:01.987Z,25.8
2018-08-07T12:15:51.246Z,25.8
2018-08-07T12:16:41.858Z,25.9
2018-08-07T12:17:32.424Z,25.9
2018-08-07T12:18:22.471Z,25.9
2018-08-07T12:19:11.722Z,25.9
2018-08-07T12:20:02.356Z,25.9
2018-08-07T12:20:52.401Z,25.9
2018-08-07T12:21:43.287Z,25.9
2018-08-07T12:22:32.866Z,25.9
2018-08-07T12:23:22.601Z,25.9
2018-08-07T12:24:12.199Z,25.9
2018-08-07T12:25:03.002Z,25.9
2018-08-07T12:25:52.843Z,25.9
2018-08-07T12:26:42.835Z,25.9
2018-08-07T12:27:33.245Z,25.9
2018-08-07T12:28:23.280Z,25.9
2018-08-07T12:29:13.062Z,25.9
2018-08-07T12:30:03.169Z,25.9
2018-08-07T12:30:52.675Z,25.9
2018-08-07T12:31:57.976Z,25.9
2018-08-07T12:32:33.128Z,25.9
2018-08-07T12:33:23.431Z,25.9
2018-08-07T12:34:13.775Z,25.9
2018-08-07T12:35:04.201Z,25.9
2018-08-07T12:35:52.848Z,25.9
2018-08-07T12:36:43.135Z,25.9
2018-08-07T12:37:33.469Z,25.9
2018-08-07T12:38:23.555Z,25.9
2018-08-07T12:39:14.139Z,25.9
2018-08-07T12:40:03.956Z,25.9
2018-08-07T12:40:52.936Z,25.9
2018-08-07T12:41:44.391Z,25.9
2018-08-07T12:42:34.205Z,25.9
2018-08-07T12:43:24.282Z,25.9
2018-08-07T12:44:13.765Z,25.9
2018-08-07T12:45:04.362Z,25.9
2018-08-07T12:45:53.874Z,25.9
2018-08-07T12:46:45.723Z,25.9
2018-08-07T12:47:34.810Z,25.9
2018-08-07T12:48:24.863Z,25.9
2018-08-07T12:49:14.649Z,25.9
2018-08-07T12:50:04.735Z,25.9
2018-08-07T12:50:54.859Z,25.9
2018-08-07T12:51:45.544Z,25.9
2018-08-07T12:52:35.201Z,25.9
2018-08-07T12:53:26.390Z,26
2018-08-07T12:54:15.297Z,26
2018-08-07T12:55:04.632Z,26
2018-08-07T12:55:55.435Z,25.9
2018-08-07T12:56:44.937Z,25.9
2018-08-07T12:57:35.617Z,26
2018-08-07T12:58:25.395Z,26
2018-08-07T12:59:14.328Z,26
2018-08-07T13:00:05.569Z,26
2018-08-07T13:00:55.339Z,26
2018-08-07T13:01:45.934Z,26
2018-08-07T13:02:34.916Z,26
2018-08-07T13:03:25.781Z,26
2018-08-07T13:04:16.084Z,26
2018-08-07T13:05:05.726Z,26
2018-08-07T13:05:56.012Z,26
2018-08-07T13:06:46.595Z,26
2018-08-07T13:07:36.429Z,26
2018-08-07T13:08:25.369Z,26
2018-08-07T13:09:15.984Z,26
2018-08-07T13:10:05.481Z,26
2018-08-07T13:10:56.640Z,26
2018-08-07T13:11:46.474Z,26
2018-08-07T13:12:36.785Z,26
2018-08-07T13:13:26.546Z,26
2018-08-07T13:14:16.930Z,26
2018-08-07T13:15:06.691Z,26
2018-08-07T13:15:56.518Z,26
2018-08-07T13:16:46.350Z,26
2018-08-07T13:17:37.653Z,26
2018-08-07T13:18:26.398Z,26
2018-08-07T13:19:17.320Z,26
2018-08-07T13:20:06.534Z,26
2018-08-07T13:20:56.612Z,26
2018-08-07T13:21:47.513Z,26
2018-08-07T13:22:37.615Z,26
2018-08-07T13:23:26.828Z,26
2018-08-07T13:24:16.892Z,26
2018-08-07T13:25:06.963Z,26
2018-08-07T13:25:58.590Z,26
2018-08-07T13:26:47.891Z,26
2018-08-07T13:27:37.404Z,26
2018-08-07T13:28:28.071Z,26
2018-08-07T13:29:17.224Z,26
2018-08-07T13:30:07.568Z,26
2018-08-07T13:30:57.119Z,26
2018-08-07T13:31:47.945Z,26
2018-08-07T13:32:37.791Z,26
2018-08-07T13:33:28.295Z,26
2018-08-07T13:34:18.527Z,26
2018-08-07T13:35:08.022Z,26
2018-08-07T13:35:57.512Z,26
2018-08-07T13:36:47.742Z,26
2018-08-07T13:37:38.599Z,26
2018-08-07T13:38:28.675Z,26
2018-08-07T13:39:17.915Z,26
2018-08-07T13:40:08.481Z,26
2018-08-07T13:40:59.168Z,26
2018-08-07T13:41:48.298Z,26
2018-08-07T13:42:38.947Z,26
2018-08-07T13:43:28.653Z,26
2018-08-07T13:44:19.266Z,26
2018-08-07T13:45:09.324Z,26
2018-08-07T13:45:59.444Z,26
2018-08-07T13:46:49.468Z,26
2018-08-07T13:47:39.480Z,26
2018-08-07T13:48:29.625Z,26
2018-08-07T13:49:19.353Z,26
2018-08-07T13:50:09.685Z,26
2018-08-07T13:50:59.455Z,26
2018-08-07T13:51:49.269Z,26
2018-08-07T13:52:39.928Z,26
2018-08-07T13:53:29.955Z,26
2018-08-07T13:54:20.013Z,26
2018-08-07T13:55:09.823Z,26
2018-08-07T13:56:01.786Z,26
2018-08-07T13:56:49.985Z,26
2018-08-07T13:57:39.788Z,26
2018-08-07T13:58:30.132Z,26
2018-08-07T13:59:19.866Z,26
2018-08-07T14:00:09.976Z,26
2018-08-07T14:01:00.313Z,26
2018-08-07T14:01:49.269Z,26
2018-08-07T14:02:39.868Z,26
2018-08-07T14:03:30.669Z,26
2018-08-07T14:04:19.738Z,26
2018-08-07T14:05:10.363Z,26
2018-08-07T14:06:00.755Z,26
2018-08-07T14:06:49.984Z,26
2018-08-07T14:07:40.089Z,26
2018-08-07T14:08:30.899Z,26
2018-08-07T14:09:21.046Z,26
2018-08-07T14:10:11.365Z,26.1
2018-08-07T14:11:00.572Z,26
2018-08-07T14:11:50.880Z,26
2018-08-07T14:12:40.980Z,26
2018-08-07T14:13:31.279Z,26
2018-08-07T14:14:21.083Z,26
2018-08-07T14:15:10.843Z,26
2018-08-07T14:16:01.231Z,26
2018-08-07T14:16:51.059Z,26
2018-08-07T14:17:42.018Z,26
2018-08-07T14:18:31.684Z,26
2018-08-07T14:19:21.288Z,26
2018-08-07T14:20:11.794Z,26
2018-08-07T14:21:01.299Z,26
2018-08-07T14:21:51.661Z,26
2018-08-07T14:22:41.723Z,26
2018-08-07T14:23:32.389Z,26
2018-08-07T14:24:21.881Z,26
2018-08-07T14:25:11.433Z,26
2018-08-07T14:26:00.850Z,26
2018-08-07T14:26:52.078Z,26
2018-08-07T14:27:41.958Z,26
2018-08-07T14:28:32.610Z,26
2018-08-07T14:29:21.601Z,26
2018-08-07T14:30:11.743Z,26
2018-08-07T14:31:02.085Z,26
2018-08-07T14:31:52.497Z,26
2018-08-07T14:32:42.790Z,26
2018-08-07T14:33:32.022Z,26
2018-08-07T14:34:22.896Z,26
2018-08-07T14:35:12.436Z,26
2018-08-07T14:36:02.256Z,26